createdAt,value
2018-12-31T00:02:09.864Z,13.27
2018-12-31T00:04:38.667Z,17.23
2018-12-31T00:07:07.463Z,17.43
2018-12-31T00:09:36.271Z,14.80
2018-12-31T00:12:05.048Z,16.53
2018-12-31T00:14:33.802Z,13.60
2018-12-31T00:17:02.887Z,16.27
2018-12-31T00:19:31.705Z,12.97
2018-12-31T00:22:00.600Z,14.27
2018-12-31T00:24:29.488Z,13.53
2018-12-31T00:26:58.537Z,13.70
2018-12-31T00:29:27.329Z,12.00
2018-12-31T00:31:56.117Z,12.73
2018-12-31T00:34:24.934Z,9.63
2018-12-31T00:36:53.900Z,13.60
2018-12-31T00:39:22.688Z,12.53
2018-12-31T00:41:51.477Z,12.70
2018-12-31T00:44:20.263Z,11.50
2018-12-31T00:46:49.100Z,10.00
2018-12-31T00:49:17.881Z,12.90
2018-12-31T00:51:46.678Z,14.50
2018-12-31T00:54:15.561Z,10.37
2018-12-31T00:56:44.336Z,8.47
2018-12-31T00:59:13.136Z,11.47
2018-12-31T01:01:41.913Z,8.40
2018-12-31T01:04:10.699Z,12.77
2018-12-31T01:06:39.476Z,13.93
2018-12-31T01:09:08.728Z,8.90
2018-12-31T01:11:37.484Z,10.93
2018-12-31T01:14:06.342Z,9.30
2018-12-31T01:16:35.113Z,7.37
2018-12-31T01:19:03.896Z,8.67
2018-12-31T01:21:32.688Z,9.03
2018-12-31T01:24:01.482Z,7.57
2018-12-31T01:26:30.253Z,8.07
2018-12-31T01:28:59.074Z,8.33
2018-12-31T01:31:27.863Z,13.07
2018-12-31T01:33:57.049Z,6.17
2018-12-31T01:36:25.850Z,7.83
2018-12-31T01:38:54.714Z,7.47
2018-12-31T01:41:23.499Z,9.27
2018-12-31T01:43:52.283Z,7.17
2018-12-31T01:46:21.063Z,8.47
2018-12-31T01:48:50.077Z,9.30
2018-12-31T01:51:18.859Z,9.20
2018-12-31T01:53:47.663Z,11.63
2018-12-31T01:56:16.432Z,8.97
2018-12-31T01:58:45.453Z,12.20
2018-12-31T02:01:14.273Z,9.77
2018-12-31T02:03:43.004Z,11.87
2018-12-31T02:06:11.830Z,7.10
2018-12-31T02:08:40.693Z,9.63
2018-12-31T02:11:09.545Z,9.13
2018-12-31T02:13:38.528Z,9.03
2018-12-31T02:16:07.337Z,9.57
2018-12-31T02:18:36.332Z,8.43
2018-12-31T02:21:05.135Z,7.30
2018-12-31T02:23:34.172Z,6.37
2018-12-31T02:26:03.079Z,12.73
2018-12-31T02:28:31.923Z,8.57
2018-12-31T02:31:00.881Z,6.77
2018-12-31T02:33:29.843Z,9.67
2018-12-31T02:35:58.625Z,10.07
2018-12-31T02:38:27.446Z,10.90
2018-12-31T02:40:56.196Z,9.43
2018-12-31T02:43:25.007Z,7.33
2018-12-31T02:45:53.797Z,11.57
2018-12-31T02:48:22.790Z,8.23
2018-12-31T02:50:51.564Z,11.33
2018-12-31T02:53:20.384Z,8.00
2018-12-31T02:55:49.194Z,6.67
2018-12-31T02:58:18.127Z,11.90
2018-12-31T03:00:46.948Z,8.47
2018-12-31T03:03:15.828Z,13.53
2018-12-31T03:05:44.776Z,8.40
2018-12-31T03:08:13.846Z,9.40
2018-12-31T03:10:42.650Z,10.50
2018-12-31T03:13:11.525Z,9.93
2018-12-31T03:15:40.305Z,9.27
2018-12-31T03:18:09.285Z,10.07
2018-12-31T03:20:38.076Z,7.93
2018-12-31T03:23:06.866Z,14.13
2018-12-31T03:25:35.636Z,10.47
2018-12-31T03:28:05.105Z,8.83
2018-12-31T03:30:33.881Z,9.93
2018-12-31T03:33:02.717Z,10.33
2018-12-31T03:35:31.552Z,9.03
2018-12-31T03:38:00.613Z,10.33
2018-12-31T03:40:29.605Z,11.60
2018-12-31T03:42:58.422Z,16.60
2018-12-31T03:45:27.207Z,11.00
2018-12-31T03:47:56.186Z,7.80
2018-12-31T03:50:25.000Z,11.50
2018-12-31T03:52:53.800Z,12.17
2018-12-31T03:55:22.653Z,15.37
2018-12-31T03:57:51.526Z,13.37
2018-12-31T04:00:20.417Z,11.53
2018-12-31T04:02:49.197Z,17.03
2018-12-31T04:05:17.982Z,13.87
2018-12-31T04:07:53.001Z,13.10
2018-12-31T04:10:17.402Z,10.70
2018-12-31T04:12:46.320Z,10.97
2018-12-31T04:15:15.263Z,15.15
2018-12-31T04:17:44.292Z,12.47
2018-12-31T04:20:13.077Z,12.73
2018-12-31T04:22:41.862Z,13.67
2018-12-31T04:25:10.670Z,14.43
2018-12-31T04:27:39.717Z,9.17
2018-12-31T04:30:09.594Z,10.80
2018-12-31T04:32:38.381Z,14.17
2018-12-31T04:35:07.264Z,14.20
2018-12-31T04:37:36.294Z,11.70
2018-12-31T04:40:05.339Z,15.03
2018-12-31T04:42:34.125Z,9.23
2018-12-31T04:45:02.921Z,14.57
2018-12-31T04:47:32.010Z,15.03
2018-12-31T04:50:00.789Z,12.80
2018-12-31T04:52:29.602Z,13.17
2018-12-31T04:54:58.387Z,10.17
2018-12-31T04:57:27.376Z,18.73
2018-12-31T04:59:57.103Z,12.50
2018-12-31T05:02:25.892Z,12.87
2018-12-31T05:04:55.852Z,15.47
2018-12-31T05:07:25.081Z,12.50
2018-12-31T05:09:53.859Z,15.40
2018-12-31T05:12:22.659Z,10.73
2018-12-31T05:14:51.438Z,16.23
2018-12-31T05:17:20.358Z,19.37
2018-12-31T05:19:49.125Z,17.77
2018-12-31T05:22:17.917Z,10.17
2018-12-31T05:24:46.717Z,14.57
2018-12-31T05:27:15.656Z,10.80
2018-12-31T05:29:44.445Z,10.20
2018-12-31T05:32:13.245Z,17.25
2018-12-31T05:34:42.029Z,10.90
2018-12-31T05:37:11.027Z,12.83
2018-12-31T05:39:39.858Z,11.07
2018-12-31T05:42:08.633Z,14.63
2018-12-31T05:44:37.401Z,15.93
2018-12-31T05:47:06.386Z,12.93
2018-12-31T05:49:35.228Z,11.50
2018-12-31T05:52:04.091Z,18.10
2018-12-31T05:54:32.867Z,15.03
2018-12-31T05:57:01.931Z,10.67
2018-12-31T05:59:30.660Z,10.50
2018-12-31T06:02:01.835Z,14.70
2018-12-31T06:04:30.604Z,18.60
2018-12-31T06:06:59.541Z,15.20
2018-12-31T06:09:28.506Z,11.93
2018-12-31T06:11:57.335Z,13.70
2018-12-31T06:14:26.102Z,13.10
2018-12-31T06:16:55.102Z,10.27
2018-12-31T06:19:24.007Z,12.33
2018-12-31T06:21:52.884Z,11.63
2018-12-31T06:24:21.714Z,9.80
2018-12-31T06:26:50.655Z,11.90
2018-12-31T06:29:19.451Z,12.60
2018-12-31T06:31:48.247Z,11.80
2018-12-31T06:34:17.073Z,14.57
2018-12-31T06:36:46.014Z,8.83
2018-12-31T06:39:14.809Z,12.70
2018-12-31T06:41:43.599Z,12.40
2018-12-31T06:44:12.464Z,11.07
2018-12-31T06:46:41.265Z,14.13
2018-12-31T06:49:10.026Z,12.47
2018-12-31T06:51:38.763Z,14.83
2018-12-31T06:54:07.588Z,13.47
2018-12-31T06:56:36.376Z,15.00
2018-12-31T06:59:05.162Z,12.23
2018-12-31T07:01:33.962Z,11.47
2018-12-31T07:04:04.717Z,15.90
2018-12-31T07:06:33.426Z,14.13
2018-12-31T07:09:02.238Z,10.77
2018-12-31T07:11:31.006Z,15.18
2018-12-31T07:13:59.797Z,12.33
2018-12-31T07:16:28.699Z,17.67
2018-12-31T07:18:57.577Z,12.53
2018-12-31T07:21:26.441Z,12.35
2018-12-31T07:23:55.232Z,12.60
2018-12-31T07:26:24.021Z,14.57
2018-12-31T07:28:52.901Z,10.37
2018-12-31T07:31:21.696Z,18.07
2018-12-31T07:33:50.477Z,12.87
2018-12-31T07:36:19.335Z,11.50
2018-12-31T07:38:48.256Z,12.23
2018-12-31T07:41:17.186Z,10.27
2018-12-31T07:43:45.945Z,18.33
2018-12-31T07:46:14.958Z,11.07
2018-12-31T07:48:44.044Z,14.73
2018-12-31T07:51:12.802Z,16.20
2018-12-31T07:53:41.622Z,15.67
2018-12-31T07:56:10.395Z,13.77
2018-12-31T07:58:39.406Z,8.93
2018-12-31T08:01:08.283Z,14.30
2018-12-31T08:03:37.096Z,10.03
2018-12-31T08:06:05.862Z,13.10
2018-12-31T08:08:34.761Z,16.63
2018-12-31T08:11:03.624Z,14.30
2018-12-31T08:13:32.991Z,10.53
2018-12-31T08:16:02.044Z,12.73
2018-12-31T08:18:34.731Z,17.90
2018-12-31T08:21:03.622Z,21.80
2018-12-31T08:23:32.595Z,10.87
2018-12-31T08:26:01.322Z,12.30
2018-12-31T08:28:30.202Z,12.00
2018-12-31T08:30:59.097Z,10.50
2018-12-31T08:33:27.951Z,11.53
2018-12-31T08:35:56.693Z,11.73
2018-12-31T08:38:25.839Z,13.17
2018-12-31T08:40:54.626Z,16.97
2018-12-31T08:43:23.484Z,11.63
2018-12-31T08:45:52.289Z,10.77
2018-12-31T08:48:21.126Z,15.43
2018-12-31T08:50:49.887Z,9.23
2018-12-31T08:53:18.666Z,12.33
2018-12-31T08:55:47.545Z,13.87
2018-12-31T08:58:16.660Z,13.27
2018-12-31T09:00:45.512Z,16.87
2018-12-31T09:03:14.320Z,10.83
2018-12-31T09:05:43.133Z,14.93
2018-12-31T09:08:13.222Z,11.33
2018-12-31T09:10:42.015Z,12.67
2018-12-31T09:13:10.805Z,13.60
2018-12-31T09:15:39.610Z,14.03
2018-12-31T09:18:08.554Z,16.87
2018-12-31T09:20:37.412Z,19.30
2018-12-31T09:23:06.197Z,11.00
2018-12-31T09:25:34.979Z,8.00
2018-12-31T09:28:03.928Z,11.37
2018-12-31T09:30:32.718Z,10.50
2018-12-31T09:33:01.453Z,8.70
2018-12-31T09:35:31.176Z,9.03
2018-12-31T09:38:00.107Z,9.83
2018-12-31T09:40:28.909Z,15.40
2018-12-31T09:42:57.696Z,14.10
2018-12-31T09:45:26.489Z,9.93
2018-12-31T09:47:55.486Z,12.17
2018-12-31T09:50:24.252Z,13.43
2018-12-31T09:52:53.111Z,15.93
2018-12-31T09:55:21.885Z,11.77
2018-12-31T09:57:50.913Z,15.90
2018-12-31T10:00:19.751Z,12.73
2018-12-31T10:02:48.513Z,6.37
2018-12-31T10:05:17.573Z,18.97
2018-12-31T10:07:46.677Z,12.17
2018-12-31T10:10:15.450Z,13.70
2018-12-31T10:12:44.371Z,13.27
2018-12-31T10:15:13.171Z,12.77
2018-12-31T10:17:42.159Z,10.43
2018-12-31T10:20:10.938Z,12.30
2018-12-31T10:22:39.725Z,15.33
2018-12-31T10:25:08.836Z,10.20
2018-12-31T10:27:37.895Z,15.00
2018-12-31T10:30:06.941Z,10.80
2018-12-31T10:32:35.695Z,14.93
2018-12-31T10:35:04.617Z,14.67
2018-12-31T10:37:33.705Z,12.67
2018-12-31T10:40:02.513Z,14.67
2018-12-31T10:42:31.305Z,20.43
2018-12-31T10:45:00.168Z,14.77
2018-12-31T10:47:29.023Z,13.67
2018-12-31T10:49:57.813Z,16.87
2018-12-31T10:52:26.592Z,22.70
2018-12-31T10:54:55.371Z,13.07
2018-12-31T10:57:24.386Z,12.50
2018-12-31T10:59:53.247Z,15.80
2018-12-31T11:02:23.289Z,15.47
2018-12-31T11:04:52.231Z,15.80
2018-12-31T11:07:21.152Z,16.57
2018-12-31T11:09:49.930Z,16.27
2018-12-31T11:12:18.790Z,16.40
2018-12-31T11:14:47.625Z,13.57
2018-12-31T11:17:16.529Z,11.17
2018-12-31T11:19:45.317Z,12.30
2018-12-31T11:22:14.100Z,11.63
2018-12-31T11:24:42.889Z,9.57
2018-12-31T11:27:11.907Z,12.17
2018-12-31T11:29:40.752Z,11.40
2018-12-31T11:32:09.538Z,11.17
2018-12-31T11:34:38.387Z,10.27
2018-12-31T11:37:07.505Z,11.80
2018-12-31T11:39:36.293Z,9.90
2018-12-31T11:42:05.140Z,8.60
2018-12-31T11:44:33.914Z,16.47
2018-12-31T11:47:03.334Z,9.10
2018-12-31T11:49:32.275Z,12.03
2018-12-31T11:52:01.107Z,9.80
2018-12-31T11:54:29.872Z,11.87
2018-12-31T11:56:58.963Z,8.23
2018-12-31T11:59:27.764Z,11.33
2018-12-31T12:01:56.654Z,11.20
2018-12-31T12:04:25.435Z,11.47
2018-12-31T12:06:56.385Z,19.13
2018-12-31T12:09:25.918Z,13.00
2018-12-31T12:11:54.695Z,9.70
2018-12-31T12:14:23.563Z,11.27
2018-12-31T12:16:52.981Z,12.67
2018-12-31T12:19:21.787Z,10.97
2018-12-31T12:21:50.638Z,10.43
2018-12-31T12:24:19.429Z,11.90
2018-12-31T12:26:48.310Z,12.97
2018-12-31T12:29:17.653Z,14.33
2018-12-31T12:31:46.409Z,13.17
2018-12-31T12:34:15.211Z,11.33
2018-12-31T12:36:44.061Z,14.03
2018-12-31T12:39:12.885Z,8.57
2018-12-31T12:41:42.281Z,11.10
2018-12-31T12:44:11.074Z,16.20
2018-12-31T12:46:40.031Z,20.33
2018-12-31T12:49:08.857Z,15.33
2018-12-31T12:51:37.650Z,12.60
2018-12-31T12:54:06.917Z,20.20
2018-12-31T12:56:35.799Z,19.33
2018-12-31T12:59:04.756Z,18.73
2018-12-31T13:01:33.556Z,21.70
2018-12-31T13:04:02.373Z,28.47
2018-12-31T13:06:31.775Z,17.93
2018-12-31T13:09:00.593Z,20.97
2018-12-31T13:11:29.367Z,17.07
2018-12-31T13:13:58.147Z,18.77
2018-12-31T13:16:27.047Z,19.57
2018-12-31T13:18:56.441Z,17.30
2018-12-31T13:21:25.320Z,21.33
2018-12-31T13:23:54.121Z,19.03
2018-12-31T13:26:22.921Z,22.17
2018-12-31T13:28:51.780Z,19.30
2018-12-31T13:31:21.087Z,22.37
2018-12-31T13:33:49.900Z,16.17
2018-12-31T13:36:18.675Z,16.80
2018-12-31T13:38:47.537Z,18.67
2018-12-31T13:41:16.313Z,17.57
2018-12-31T13:43:45.494Z,15.80
2018-12-31T13:46:14.276Z,17.23
2018-12-31T13:48:43.301Z,15.63
2018-12-31T13:51:12.273Z,15.00
2018-12-31T13:53:41.258Z,17.57
2018-12-31T13:56:10.525Z,18.87
2018-12-31T13:58:39.491Z,14.87
2018-12-31T14:01:08.415Z,13.20
2018-12-31T14:03:37.194Z,14.47
2018-12-31T14:06:05.956Z,15.08
2018-12-31T14:08:35.232Z,14.90
2018-12-31T14:11:04.265Z,15.43
2018-12-31T14:13:33.045Z,15.23
2018-12-31T14:16:01.847Z,16.23
2018-12-31T14:18:30.814Z,12.53
2018-12-31T14:20:59.595Z,15.03
2018-12-31T14:23:28.378Z,15.20
2018-12-31T14:25:57.159Z,17.53
2018-12-31T14:28:26.153Z,20.37
2018-12-31T14:30:55.109Z,23.07
2018-12-31T14:33:23.959Z,19.10
2018-12-31T14:35:52.745Z,19.15
2018-12-31T14:38:21.726Z,18.53
2018-12-31T14:40:50.568Z,19.00
2018-12-31T14:43:19.305Z,20.97
2018-12-31T14:45:48.295Z,21.37
2018-12-31T14:48:17.275Z,24.43
2018-12-31T14:50:46.080Z,21.87
2018-12-31T14:53:14.925Z,22.57
2018-12-31T14:55:43.709Z,20.03
2018-12-31T14:58:13.047Z,22.80
2018-12-31T15:00:41.928Z,20.83
2018-12-31T15:03:10.721Z,19.83
2018-12-31T15:05:39.522Z,16.37
2018-12-31T15:08:08.450Z,22.07
2018-12-31T15:10:37.431Z,19.33
2018-12-31T15:13:06.286Z,17.60
2018-12-31T15:15:35.119Z,16.97
2018-12-31T15:18:04.220Z,17.50
2018-12-31T15:20:33.203Z,16.83
2018-12-31T15:23:02.343Z,18.40
2018-12-31T15:25:31.197Z,17.57
2018-12-31T15:28:00.129Z,19.90
2018-12-31T15:30:29.046Z,16.77
2018-12-31T15:32:57.910Z,17.97
2018-12-31T15:35:27.234Z,16.07
2018-12-31T15:37:56.087Z,15.37
2018-12-31T15:40:24.987Z,12.80
2018-12-31T15:42:53.765Z,13.53
2018-12-31T15:45:22.793Z,18.17
2018-12-31T15:47:52.009Z,19.00
2018-12-31T15:50:20.964Z,19.47
2018-12-31T15:52:49.746Z,15.20
2018-12-31T15:55:18.537Z,18.80
2018-12-31T15:57:47.466Z,23.17
2018-12-31T16:00:16.411Z,17.10
2018-12-31T16:02:45.284Z,17.53
2018-12-31T16:05:14.079Z,14.43
2018-12-31T16:11:10.790Z,15.97
2018-12-31T16:21:17.096Z,19.83
2018-12-31T16:27:14.159Z,46.47
2018-12-31T16:33:10.397Z,19.57
2018-12-31T16:35:39.170Z,19.03
2018-12-31T16:38:07.955Z,17.33
2018-12-31T16:44:03.965Z,21.50
2018-12-31T16:50:00.868Z,18.47
2018-12-31T16:55:34.527Z,23.00
2018-12-31T17:01:31.777Z,32.60
2018-12-31T17:07:28.706Z,35.50
2018-12-31T17:13:25.404Z,50.93
2018-12-31T17:15:54.237Z,40.07
2018-12-31T17:18:23.179Z,24.57
2018-12-31T17:23:56.193Z,22.40
2018-12-31T17:29:53.260Z,44.47
2018-12-31T17:35:50.591Z,15.33
2018-12-31T17:41:48.122Z,11.20
2018-12-31T17:47:45.421Z,13.70
2018-12-31T17:50:14.207Z,10.17
2018-12-31T17:52:42.980Z,15.83
2018-12-31T17:58:39.709Z,11.40
2018-12-31T18:04:36.157Z,48.77
2018-12-31T18:10:33.383Z,14.27
2018-12-31T18:16:30.653Z,13.87
2018-12-31T18:25:44.064Z,16.20
2018-12-31T18:31:53.087Z,14.80
2018-12-31T18:38:01.939Z,13.77
2018-12-31T18:40:30.815Z,25.73
2018-12-31T18:42:59.567Z,16.47
2018-12-31T18:48:56.211Z,24.67
2018-12-31T18:54:52.573Z,20.23
2018-12-31T19:00:48.939Z,16.67
2018-12-31T19:06:46.131Z,19.23
2018-12-31T19:12:43.288Z,22.67
2018-12-31T19:15:12.072Z,22.43
2018-12-31T19:17:40.867Z,36.00
2018-12-31T19:27:04.785Z,22.97
2018-12-31T19:33:01.986Z,27.03
2018-12-31T19:35:30.787Z,30.70
2018-12-31T19:37:59.605Z,35.67
2018-12-31T19:43:55.871Z,30.97
2018-12-31T19:49:28.450Z,34.77
2018-12-31T19:55:24.658Z,29.67
2018-12-31T20:01:21.864Z,44.73
2018-12-31T20:07:19.191Z,33.70
2018-12-31T20:13:15.953Z,35.80
2018-12-31T20:15:48.621Z,23.62
2018-12-31T20:18:15.275Z,27.47
2018-12-31T20:27:39.681Z,46.37
2018-12-31T20:30:09.409Z,49.03
2018-12-31T20:32:38.180Z,58.53
2018-12-31T20:38:47.209Z,27.70
2018-12-31T20:41:15.990Z,39.97
2018-12-31T20:43:44.869Z,23.80
2018-12-31T20:49:53.750Z,29.57
2018-12-31T20:56:03.018Z,28.90
2018-12-31T21:02:12.046Z,25.17
2018-12-31T21:08:20.727Z,26.50
2018-12-31T21:10:49.499Z,30.83
2018-12-31T21:13:18.309Z,31.80
2018-12-31T21:19:26.882Z,34.17
2018-12-31T21:28:51.161Z,52.03
2018-12-31T21:35:00.001Z,40.13
2018-12-31T21:41:08.786Z,44.23
2018-12-31T21:47:05.796Z,34.60
2018-12-31T21:53:02.227Z,45.10
2018-12-31T21:55:31.577Z,30.17
2018-12-31T21:58:00.388Z,122.97
2018-12-31T22:04:09.027Z,47.93
2018-12-31T22:10:19.642Z,46.20
2018-12-31T22:16:30.503Z,47.00
2018-12-31T22:22:41.987Z,37.97
2018-12-31T22:25:12.776Z,32.83
2018-12-31T22:27:44.565Z,37.55
2018-12-31T22:33:44.085Z,80.97
2018-12-31T22:39:19.317Z,54.00
2018-12-31T22:45:17.986Z,40.43
2018-12-31T22:51:16.705Z,44.70
2018-12-31T22:57:16.007Z,32.70
2018-12-31T23:03:14.254Z,43.80
2018-12-31T23:05:45.261Z,64.00
